sensor_id;sensor_type;location;lat;lon;timestamp;P1;durP1;ratioP1;P2;durP2;ratioP2
60917;SDS011;46792;38.854;-9.384;2023-05-27T00:00:02;22.67;;;6.82;;
60917;SDS011;46792;38.854;-9.384;2023-05-27T00:02:04;17.83;;;7.50;;
60917;SDS011;46792;38.854;-9.384;2023-05-27T00:04:05;19.73;;;7.30;;
60917;SDS011;46792;38.854;-9.384;2023-05-27T00:06:27;15.30;;;8.45;;
60917;SDS011;46792;38.854;-9.384;2023-05-27T00:08:46;17.27;;;7.13;;
60917;SDS011;46792;38.854;-9.384;2023-05-27T00:10:46;13.82;;;6.53;;
60917;SDS011;46792;38.854;-9.384;2023-05-27T00:12:48;21.50;;;6.60;;
60917;SDS011;46792;38.854;-9.384;2023-05-27T00:15:07;18.75;;;6.47;;
60917;SDS011;46792;38.854;-9.384;2023-05-27T00:17:30;19.13;;;7.43;;
60917;SDS011;46792;38.854;-9.384;2023-05-27T00:19:30;16.98;;;7.47;;
60917;SDS011;46792;38.854;-9.384;2023-05-27T00:21:31;18.27;;;7.10;;
60917;SDS011;46792;38.854;-9.384;2023-05-27T00:23:31;19.95;;;7.07;;
60917;SDS011;46792;38.854;-9.384;2023-05-27T00:25:50;23.50;;;7.85;;
60917;SDS011;46792;38.854;-9.384;2023-05-27T00:27:50;18.75;;;8.02;;
60917;SDS011;46792;38.854;-9.384;2023-05-27T00:29:51;23.08;;;7.65;;
60917;SDS011;46792;38.854;-9.384;2023-05-27T00:31:52;21.15;;;7.65;;
60917;SDS011;46792;38.854;-9.384;2023-05-27T00:33:52;20.05;;;7.28;;
60917;SDS011;46792;38.854;-9.384;2023-05-27T00:35:53;21.92;;;7.82;;
60917;SDS011;46792;38.854;-9.384;2023-05-27T00:37:53;23.15;;;9.13;;
60917;SDS011;46792;38.854;-9.384;2023-05-27T00:39:53;22.40;;;9.35;;
60917;SDS011;46792;38.854;-9.384;2023-05-27T00:41:54;17.60;;;7.53;;
60917;SDS011;46792;38.854;-9.384;2023-05-27T00:43:58;20.77;;;7.35;;
60917;SDS011;46792;38.854;-9.384;2023-05-27T00:45:58;15.32;;;7.85;;
60917;SDS011;46792;38.854;-9.384;2023-05-27T00:47:59;18.77;;;8.48;;
60917;SDS011;46792;38.854;-9.384;2023-05-27T00:50:20;25.42;;;8.43;;
60917;SDS011;46792;38.854;-9.384;2023-05-27T00:52:40;22.15;;;8.23;;
60917;SDS011;46792;38.854;-9.384;2023-05-27T00:54:41;26.80;;;7.88;;
60917;SDS011;46792;38.854;-9.384;2023-05-27T00:56:41;21.77;;;8.60;;
60917;SDS011;46792;38.854;-9.384;2023-05-27T00:58:42;26.00;;;9.15;;
60917;SDS011;46792;38.854;-9.384;2023-05-27T01:00:42;20.88;;;8.00;;
60917;SDS011;46792;38.854;-9.384;2023-05-27T01:02:43;19.45;;;8.80;;
60917;SDS011;46792;38.854;-9.384;2023-05-27T01:04:44;29.60;;;8.18;;
60917;SDS011;46792;38.854;-9.384;2023-05-27T01:06:48;21.30;;;8.13;;
60917;SDS011;46792;38.854;-9.384;2023-05-27T01:16:11;21.55;;;6.55;;
60917;SDS011;46792;38.854;-9.384;2023-05-27T01:18:12;22.27;;;7.25;;
60917;SDS011;46792;38.854;-9.384;2023-05-27T01:20:13;18.30;;;7.50;;
60917;SDS011;46792;38.854;-9.384;2023-05-27T01:24:36;16.05;;;8.05;;
60917;SDS011;46792;38.854;-9.384;2023-05-27T01:28:56;21.20;;;8.02;;
60917;SDS011;46792;38.854;-9.384;2023-05-27T01:35:55;21.85;;;8.48;;
60917;SDS011;46792;38.854;-9.384;2023-05-27T01:37:59;18.63;;;7.07;;
60917;SDS011;46792;38.854;-9.384;2023-05-27T01:40:01;17.58;;;7.13;;
60917;SDS011;46792;38.854;-9.384;2023-05-27T01:42:06;16.63;;;8.43;;
60917;SDS011;46792;38.854;-9.384;2023-05-27T01:44:06;16.67;;;7.22;;
60917;SDS011;46792;38.854;-9.384;2023-05-27T01:46:07;18.60;;;8.57;;
60917;SDS011;46792;38.854;-9.384;2023-05-27T01:48:08;24.15;;;7.38;;
60917;SDS011;46792;38.854;-9.384;2023-05-27T02:02:16;22.10;;;7.63;;
60917;SDS011;46792;38.854;-9.384;2023-05-27T02:04:17;18.42;;;8.10;;
60917;SDS011;46792;38.854;-9.384;2023-05-27T02:06:17;21.48;;;8.27;;
60917;SDS011;46792;38.854;-9.384;2023-05-27T02:10:38;20.15;;;7.07;;
60917;SDS011;46792;38.854;-9.384;2023-05-27T02:12:39;20.25;;;7.45;;
60917;SDS011;46792;38.854;-9.384;2023-05-27T02:14:39;15.00;;;7.50;;
60917;SDS011;46792;38.854;-9.384;2023-05-27T02:16:59;21.83;;;7.53;;
60917;SDS011;46792;38.854;-9.384;2023-05-27T02:19:00;14.20;;;7.20;;
60917;SDS011;46792;38.854;-9.384;2023-05-27T02:21:01;21.52;;;6.75;;
60917;SDS011;46792;38.854;-9.384;2023-05-27T02:27:44;11.95;;;7.03;;
60917;SDS011;46792;38.854;-9.384;2023-05-27T02:29:48;18.40;;;7.15;;
60917;SDS011;46792;38.854;-9.384;2023-05-27T02:31:48;13.88;;;6.68;;
60917;SDS011;46792;38.854;-9.384;2023-05-27T02:33:49;20.52;;;6.43;;
60917;SDS011;46792;38.854;-9.384;2023-05-27T02:43:05;18.83;;;7.05;;
60917;SDS011;46792;38.854;-9.384;2023-05-27T02:47:26;16.67;;;6.90;;
60917;SDS011;46792;38.854;-9.384;2023-05-27T02:49:27;19.80;;;7.10;;
60917;SDS011;46792;38.854;-9.384;2023-05-27T02:51:28;15.63;;;5.85;;
60917;SDS011;46792;38.854;-9.384;2023-05-27T02:53:28;15.48;;;6.78;;
60917;SDS011;46792;38.854;-9.384;2023-05-27T02:55:48;21.58;;;7.15;;
60917;SDS011;46792;38.854;-9.384;2023-05-27T02:57:48;17.67;;;6.78;;
60917;SDS011;46792;38.854;-9.384;2023-05-27T02:59:48;17.67;;;7.22;;
60917;SDS011;46792;38.854;-9.384;2023-05-27T03:01:49;16.40;;;7.40;;
60917;SDS011;46792;38.854;-9.384;2023-05-27T03:04:08;14.77;;;6.63;;
60917;SDS011;46792;38.854;-9.384;2023-05-27T03:06:27;19.42;;;8.00;;
60917;SDS011;46792;38.854;-9.384;2023-05-27T03:08:27;22.88;;;7.88;;
60917;SDS011;46792;38.854;-9.384;2023-05-27T03:10:46;17.88;;;7.35;;
60917;SDS011;46792;38.854;-9.384;2023-05-27T03:12:47;18.23;;;7.57;;
60917;SDS011;46792;38.854;-9.384;2023-05-27T03:15:06;16.50;;;7.50;;
60917;SDS011;46792;38.854;-9.384;2023-05-27T03:17:06;21.30;;;7.80;;
60917;SDS011;46792;38.854;-9.384;2023-05-27T03:19:25;24.02;;;8.25;;
60917;SDS011;46792;38.854;-9.384;2023-05-27T03:21:44;18.48;;;8.15;;
60917;SDS011;46792;38.854;-9.384;2023-05-27T03:24:03;20.45;;;8.40;;
60917;SDS011;46792;38.854;-9.384;2023-05-27T03:26:04;27.42;;;8.23;;
60917;SDS011;46792;38.854;-9.384;2023-05-27T03:28:05;21.70;;;8.70;;
60917;SDS011;46792;38.854;-9.384;2023-05-27T03:30:06;17.20;;;8.75;;
60917;SDS011;46792;38.854;-9.384;2023-05-27T03:32:10;17.67;;;8.55;;
60917;SDS011;46792;38.854;-9.384;2023-05-27T03:34:11;24.80;;;8.60;;
60917;SDS011;46792;38.854;-9.384;2023-05-27T03:36:14;18.23;;;8.38;;
60917;SDS011;46792;38.854;-9.384;2023-05-27T03:38:14;18.23;;;9.15;;
60917;SDS011;46792;38.854;-9.384;2023-05-27T03:40:35;19.00;;;8.38;;
60917;SDS011;46792;38.854;-9.384;2023-05-27T03:42:38;21.85;;;8.25;;
60917;SDS011;46792;38.854;-9.384;2023-05-27T03:44:39;19.23;;;8.70;;
60917;SDS011;46792;38.854;-9.384;2023-05-27T03:46:40;17.33;;;8.32;;
60917;SDS011;46792;38.854;-9.384;2023-05-27T03:48:40;17.42;;;6.97;;
60917;SDS011;46792;38.854;-9.384;2023-05-27T03:50:41;17.92;;;8.40;;
60917;SDS011;46792;38.854;-9.384;2023-05-27T03:52:42;20.92;;;8.13;;
60917;SDS011;46792;38.854;-9.384;2023-05-27T03:54:42;17.35;;;7.65;;
60917;SDS011;46792;38.854;-9.384;2023-05-27T03:56:43;21.05;;;8.30;;
60917;SDS011;46792;38.854;-9.384;2023-05-27T03:58:49;24.35;;;9.23;;
60917;SDS011;46792;38.854;-9.384;2023-05-27T04:00:50;23.70;;;8.90;;
60917;SDS011;46792;38.854;-9.384;2023-05-27T04:02:51;20.80;;;8.73;;
60917;SDS011;46792;38.854;-9.384;2023-05-27T04:04:52;22.88;;;8.77;;
60917;SDS011;46792;38.854;-9.384;2023-05-27T04:06:54;20.48;;;8.27;;
60917;SDS011;46792;38.854;-9.384;2023-05-27T04:08:55;16.30;;;8.90;;
60917;SDS011;46792;38.854;-9.384;2023-05-27T04:10:56;24.65;;;9.40;;
60917;SDS011;46792;38.854;-9.384;2023-05-27T04:12:58;20.75;;;7.95;;
60917;SDS011;46792;38.854;-9.384;2023-05-27T04:17:35;25.85;;;8.63;;
60917;SDS011;46792;38.854;-9.384;2023-05-27T04:19:36;18.13;;;8.98;;
60917;SDS011;46792;38.854;-9.384;2023-05-27T04:24:14;24.75;;;7.88;;
60917;SDS011;46792;38.854;-9.384;2023-05-27T04:28:54;29.20;;;8.45;;
60917;SDS011;46792;38.854;-9.384;2023-05-27T04:30:56;20.85;;;8.30;;
60917;SDS011;46792;38.854;-9.384;2023-05-27T04:38:12;18.55;;;7.95;;
60917;SDS011;46792;38.854;-9.384;2023-05-27T04:40:26;18.30;;;8.05;;
60917;SDS011;46792;38.854;-9.384;2023-05-27T04:42:47;22.08;;;8.50;;
60917;SDS011;46792;38.854;-9.384;2023-05-27T04:44:48;23.70;;;8.15;;
60917;SDS011;46792;38.854;-9.384;2023-05-27T04:46:49;14.05;;;8.15;;
60917;SDS011;46792;38.854;-9.384;2023-05-27T04:51:08;17.10;;;8.02;;
60917;SDS011;46792;38.854;-9.384;2023-05-27T04:53:09;23.13;;;8.68;;
60917;SDS011;46792;38.854;-9.384;2023-05-27T04:57:29;20.83;;;7.95;;
60917;SDS011;46792;38.854;-9.384;2023-05-27T05:02:35;26.10;;;10.45;;
60917;SDS011;46792;38.854;-9.384;2023-05-27T05:04:55;24.95;;;10.13;;
60917;SDS011;46792;38.854;-9.384;2023-05-27T05:09:16;19.60;;;9.25;;
60917;SDS011;46792;38.854;-9.384;2023-05-27T05:11:17;15.50;;;9.00;;
60917;SDS011;46792;38.854;-9.384;2023-05-27T05:13:20;21.58;;;9.50;;
60917;SDS011;46792;38.854;-9.384;2023-05-27T05:15:21;20.13;;;9.55;;
60917;SDS011;46792;38.854;-9.384;2023-05-27T05:17:23;20.77;;;10.43;;
60917;SDS011;46792;38.854;-9.384;2023-05-27T05:19:43;24.08;;;9.35;;
60917;SDS011;46792;38.854;-9.384;2023-05-27T05:21:44;30.75;;;10.35;;
60917;SDS011;46792;38.854;-9.384;2023-05-27T05:23:47;24.83;;;10.00;;
60917;SDS011;46792;38.854;-9.384;2023-05-27T05:25:48;18.33;;;10.05;;
60917;SDS011;46792;38.854;-9.384;2023-05-27T05:27:55;14.57;;;9.05;;
60917;SDS011;46792;38.854;-9.384;2023-05-27T05:29:56;18.73;;;9.57;;
60917;SDS011;46792;38.854;-9.384;2023-05-27T05:31:56;17.02;;;8.43;;
60917;SDS011;46792;38.854;-9.384;2023-05-27T05:33:57;22.58;;;8.95;;
60917;SDS011;46792;38.854;-9.384;2023-05-27T05:35:59;23.13;;;8.70;;
60917;SDS011;46792;38.854;-9.384;2023-05-27T05:38:18;21.38;;;10.07;;
60917;SDS011;46792;38.854;-9.384;2023-05-27T05:42:42;23.35;;;10.00;;
60917;SDS011;46792;38.854;-9.384;2023-05-27T05:45:01;17.85;;;8.77;;
60917;SDS011;46792;38.854;-9.384;2023-05-27T05:47:20;21.27;;;9.52;;
60917;SDS011;46792;38.854;-9.384;2023-05-27T05:49:39;24.20;;;9.15;;
60917;SDS011;46792;38.854;-9.384;2023-05-27T05:51:42;18.23;;;8.68;;
60917;SDS011;46792;38.854;-9.384;2023-05-27T05:53:42;21.52;;;8.48;;
60917;SDS011;46792;38.854;-9.384;2023-05-27T05:55:43;13.90;;;9.23;;
60917;SDS011;46792;38.854;-9.384;2023-05-27T05:58:01;26.70;;;10.32;;
60917;SDS011;46792;38.854;-9.384;2023-05-27T06:00:20;18.25;;;9.23;;
60917;SDS011;46792;38.854;-9.384;2023-05-27T06:02:25;17.02;;;9.23;;
60917;SDS011;46792;38.854;-9.384;2023-05-27T06:04:26;23.25;;;10.50;;
60917;SDS011;46792;38.854;-9.384;2023-05-27T06:06:27;19.30;;;10.05;;
60917;SDS011;46792;38.854;-9.384;2023-05-27T06:08:46;24.45;;;10.07;;
60917;SDS011;46792;38.854;-9.384;2023-05-27T06:15:29;27.85;;;9.82;;
60917;SDS011;46792;38.854;-9.384;2023-05-27T06:17:30;17.88;;;9.30;;
60917;SDS011;46792;38.854;-9.384;2023-05-27T06:19:31;25.63;;;9.82;;
60917;SDS011;46792;38.854;-9.384;2023-05-27T06:21:35;20.67;;;9.63;;
60917;SDS011;46792;38.854;-9.384;2023-05-27T06:23:54;20.10;;;10.30;;
60917;SDS011;46792;38.854;-9.384;2023-05-27T06:25:55;19.23;;;9.73;;
60917;SDS011;46792;38.854;-9.384;2023-05-27T06:27:57;19.90;;;9.77;;
60917;SDS011;46792;38.854;-9.384;2023-05-27T06:36:58;22.08;;;9.43;;
60917;SDS011;46792;38.854;-9.384;2023-05-27T06:38:59;24.15;;;8.95;;
60917;SDS011;46792;38.854;-9.384;2023-05-27T06:41:01;16.33;;;10.25;;
60917;SDS011;46792;38.854;-9.384;2023-05-27T06:43:01;21.65;;;8.98;;
60917;SDS011;46792;38.854;-9.384;2023-05-27T06:45:20;16.65;;;8.15;;
60917;SDS011;46792;38.854;-9.384;2023-05-27T06:47:39;28.52;;;8.80;;
60917;SDS011;46792;38.854;-9.384;2023-05-27T06:49:58;20.13;;;8.38;;
60917;SDS011;46792;38.854;-9.384;2023-05-27T06:51:59;23.75;;;9.02;;
60917;SDS011;46792;38.854;-9.384;2023-05-27T06:54:02;17.88;;;8.68;;
60917;SDS011;46792;38.854;-9.384;2023-05-27T06:58:45;28.83;;;9.55;;
60917;SDS011;46792;38.854;-9.384;2023-05-27T07:00:53;26.60;;;10.07;;
60917;SDS011;46792;38.854;-9.384;2023-05-27T07:03:04;17.85;;;8.15;;
60917;SDS011;46792;38.854;-9.384;2023-05-27T07:07:43;27.25;;;9.77;;
60917;SDS011;46792;38.854;-9.384;2023-05-27T07:09:44;27.67;;;8.18;;
60917;SDS011;46792;38.854;-9.384;2023-05-27T07:11:44;26.73;;;9.48;;
60917;SDS011;46792;38.854;-9.384;2023-05-27T07:13:52;24.65;;;8.80;;
60917;SDS011;46792;38.854;-9.384;2023-05-27T07:20:38;27.77;;;7.97;;
60917;SDS011;46792;38.854;-9.384;2023-05-27T07:24:43;20.50;;;7.43;;
60917;SDS011;46792;38.854;-9.384;2023-05-27T07:31:59;20.98;;;7.18;;
60917;SDS011;46792;38.854;-9.384;2023-05-27T07:34:03;20.98;;;9.30;;
60917;SDS011;46792;38.854;-9.384;2023-05-27T07:36:04;19.25;;;10.15;;
60917;SDS011;46792;38.854;-9.384;2023-05-27T07:38:04;16.85;;;6.80;;
60917;SDS011;46792;38.854;-9.384;2023-05-27T07:40:05;14.60;;;6.20;;
60917;SDS011;46792;38.854;-9.384;2023-05-27T07:49:44;14.73;;;5.53;;
60917;SDS011;46792;38.854;-9.384;2023-05-27T07:52:12;18.67;;;6.38;;
60917;SDS011;46792;38.854;-9.384;2023-05-27T07:56:32;13.43;;;4.90;;
60917;SDS011;46792;38.854;-9.384;2023-05-27T08:03:19;11.98;;;4.88;;
60917;SDS011;46792;38.854;-9.384;2023-05-27T08:05:39;16.85;;;5.30;;
60917;SDS011;46792;38.854;-9.384;2023-05-27T08:08:05;16.05;;;7.72;;
60917;SDS011;46792;38.854;-9.384;2023-05-27T08:10:25;12.02;;;4.85;;
60917;SDS011;46792;38.854;-9.384;2023-05-27T08:12:44;8.88;;;4.45;;
60917;SDS011;46792;38.854;-9.384;2023-05-27T08:14:52;8.48;;;4.00;;
60917;SDS011;46792;38.854;-9.384;2023-05-27T08:17:21;11.63;;;4.25;;
60917;SDS011;46792;38.854;-9.384;2023-05-27T08:27:19;7.72;;;4.57;;
60917;SDS011;46792;38.854;-9.384;2023-05-27T08:29:36;12.75;;;4.00;;
60917;SDS011;46792;38.854;-9.384;2023-05-27T08:39:07;7.72;;;3.72;;
60917;SDS011;46792;38.854;-9.384;2023-05-27T08:41:15;15.73;;;5.20;;
60917;SDS011;46792;38.854;-9.384;2023-05-27T08:43:16;10.95;;;4.55;;
60917;SDS011;46792;38.854;-9.384;2023-05-27T08:45:18;13.50;;;3.85;;
60917;SDS011;46792;38.854;-9.384;2023-05-27T08:47:19;10.65;;;4.28;;
60917;SDS011;46792;38.854;-9.384;2023-05-27T08:49:20;10.65;;;4.32;;
60917;SDS011;46792;38.854;-9.384;2023-05-27T08:51:21;15.70;;;4.30;;
60917;SDS011;46792;38.854;-9.384;2023-05-27T08:53:22;15.82;;;4.43;;
60917;SDS011;46792;38.854;-9.384;2023-05-27T08:55:22;5.88;;;3.47;;
60917;SDS011;46792;38.854;-9.384;2023-05-27T08:57:28;8.52;;;4.25;;
60917;SDS011;46792;38.854;-9.384;2023-05-27T08:59:29;11.02;;;4.20;;
60917;SDS011;46792;38.854;-9.384;2023-05-27T09:01:31;13.13;;;4.07;;
60917;SDS011;46792;38.854;-9.384;2023-05-27T09:03:33;10.50;;;4.47;;
60917;SDS011;46792;38.854;-9.384;2023-05-27T09:05:33;7.35;;;3.60;;
60917;SDS011;46792;38.854;-9.384;2023-05-27T09:07:53;11.73;;;4.40;;
60917;SDS011;46792;38.854;-9.384;2023-05-27T09:10:03;8.63;;;3.80;;
60917;SDS011;46792;38.854;-9.384;2023-05-27T09:12:05;8.75;;;4.32;;
60917;SDS011;46792;38.854;-9.384;2023-05-27T09:14:25;10.88;;;3.88;;
60917;SDS011;46792;38.854;-9.384;2023-05-27T09:16:45;6.15;;;3.22;;
60917;SDS011;46792;38.854;-9.384;2023-05-27T09:19:13;10.50;;;3.63;;
60917;SDS011;46792;38.854;-9.384;2023-05-27T09:21:32;6.28;;;3.88;;
60917;SDS011;46792;38.854;-9.384;2023-05-27T09:23:39;10.32;;;3.55;;
60917;SDS011;46792;38.854;-9.384;2023-05-27T09:30:36;5.90;;;3.47;;
60917;SDS011;46792;38.854;-9.384;2023-05-27T09:32:37;6.95;;;3.05;;
60917;SDS011;46792;38.854;-9.384;2023-05-27T09:34:58;10.40;;;3.40;;
60917;SDS011;46792;38.854;-9.384;2023-05-27T09:44:01;4.82;;;3.15;;
60917;SDS011;46792;38.854;-9.384;2023-05-27T09:46:03;7.90;;;2.92;;
60917;SDS011;46792;38.854;-9.384;2023-05-27T09:48:25;6.55;;;3.90;;
60917;SDS011;46792;38.854;-9.384;2023-05-27T09:50:26;9.38;;;4.05;;
60917;SDS011;46792;38.854;-9.384;2023-05-27T09:52:28;9.13;;;3.75;;
60917;SDS011;46792;38.854;-9.384;2023-05-27T09:54:28;7.55;;;3.80;;
60917;SDS011;46792;38.854;-9.384;2023-05-27T09:56:49;17.92;;;3.97;;
60917;SDS011;46792;38.854;-9.384;2023-05-27T10:01:08;13.20;;;3.90;;
60917;SDS011;46792;38.854;-9.384;2023-05-27T10:03:09;9.57;;;4.13;;
60917;SDS011;46792;38.854;-9.384;2023-05-27T10:05:11;12.57;;;4.10;;
60917;SDS011;46792;38.854;-9.384;2023-05-27T10:07:12;16.25;;;4.30;;
60917;SDS011;46792;38.854;-9.384;2023-05-27T10:09:32;9.32;;;3.92;;
60917;SDS011;46792;38.854;-9.384;2023-05-27T10:16:29;6.07;;;3.50;;
60917;SDS011;46792;38.854;-9.384;2023-05-27T10:18:30;9.25;;;4.05;;
60917;SDS011;46792;38.854;-9.384;2023-05-27T10:23:12;9.77;;;3.65;;
60917;SDS011;46792;38.854;-9.384;2023-05-27T10:25:35;8.65;;;3.50;;
60917;SDS011;46792;38.854;-9.384;2023-05-27T10:27:45;8.23;;;3.78;;
60917;SDS011;46792;38.854;-9.384;2023-05-27T10:29:45;12.95;;;4.85;;
60917;SDS011;46792;38.854;-9.384;2023-05-27T10:31:56;10.27;;;4.50;;
60917;SDS011;46792;38.854;-9.384;2023-05-27T10:33:57;7.00;;;4.03;;
60917;SDS011;46792;38.854;-9.384;2023-05-27T10:38:17;7.82;;;3.28;;
60917;SDS011;46792;38.854;-9.384;2023-05-27T10:40:24;9.50;;;3.60;;
60917;SDS011;46792;38.854;-9.384;2023-05-27T10:49:23;6.43;;;3.42;;
60917;SDS011;46792;38.854;-9.384;2023-05-27T10:51:31;8.82;;;3.88;;
60917;SDS011;46792;38.854;-9.384;2023-05-27T10:53:34;8.23;;;3.50;;
60917;SDS011;46792;38.854;-9.384;2023-05-27T10:55:34;8.18;;;3.17;;
60917;SDS011;46792;38.854;-9.384;2023-05-27T11:02:15;6.70;;;2.95;;
60917;SDS011;46792;38.854;-9.384;2023-05-27T11:04:34;17.75;;;4.68;;
60917;SDS011;46792;38.854;-9.384;2023-05-27T11:06:35;5.80;;;3.13;;
60917;SDS011;46792;38.854;-9.384;2023-05-27T11:08:54;8.30;;;3.03;;
60917;SDS011;46792;38.854;-9.384;2023-05-27T11:11:13;14.57;;;3.63;;
60917;SDS011;46792;38.854;-9.384;2023-05-27T11:13:36;6.93;;;3.28;;
60917;SDS011;46792;38.854;-9.384;2023-05-27T11:15:57;10.10;;;5.78;;
60917;SDS011;46792;38.854;-9.384;2023-05-27T11:18:03;6.68;;;2.80;;
60917;SDS011;46792;38.854;-9.384;2023-05-27T11:20:04;11.13;;;3.22;;
60917;SDS011;46792;38.854;-9.384;2023-05-27T11:22:08;10.02;;;3.65;;
60917;SDS011;46792;38.854;-9.384;2023-05-27T11:24:13;10.30;;;3.58;;
60917;SDS011;46792;38.854;-9.384;2023-05-27T11:26:32;9.25;;;3.13;;
60917;SDS011;46792;38.854;-9.384;2023-05-27T11:28:33;7.90;;;2.92;;
60917;SDS011;46792;38.854;-9.384;2023-05-27T11:30:33;10.68;;;2.70;;
60917;SDS011;46792;38.854;-9.384;2023-05-27T11:32:35;7.78;;;3.33;;
60917;SDS011;46792;38.854;-9.384;2023-05-27T11:34:35;4.70;;;2.75;;
60917;SDS011;46792;38.854;-9.384;2023-05-27T11:36:36;9.02;;;2.72;;
60917;SDS011;46792;38.854;-9.384;2023-05-27T11:40:47;6.72;;;2.67;;
60917;SDS011;46792;38.854;-9.384;2023-05-27T11:42:48;5.80;;;2.75;;
60917;SDS011;46792;38.854;-9.384;2023-05-27T11:44:50;3.72;;;2.55;;
60917;SDS011;46792;38.854;-9.384;2023-05-27T11:46:51;6.78;;;3.13;;
60917;SDS011;46792;38.854;-9.384;2023-05-27T11:48:51;6.80;;;2.85;;
60917;SDS011;46792;38.854;-9.384;2023-05-27T11:50:52;11.85;;;3.30;;
60917;SDS011;46792;38.854;-9.384;2023-05-27T11:52:53;9.80;;;2.60;;
60917;SDS011;46792;38.854;-9.384;2023-05-27T11:54:53;3.10;;;2.25;;
60917;SDS011;46792;38.854;-9.384;2023-05-27T11:56:54;5.18;;;2.10;;
60917;SDS011;46792;38.854;-9.384;2023-05-27T11:58:55;3.50;;;2.40;;
60917;SDS011;46792;38.854;-9.384;2023-05-27T12:00:56;3.97;;;2.38;;
60917;SDS011;46792;38.854;-9.384;2023-05-27T12:02:56;4.78;;;2.92;;
60917;SDS011;46792;38.854;-9.384;2023-05-27T12:04:57;8.60;;;2.83;;
60917;SDS011;46792;38.854;-9.384;2023-05-27T12:07:16;7.88;;;2.70;;
60917;SDS011;46792;38.854;-9.384;2023-05-27T12:09:16;6.10;;;2.13;;
60917;SDS011;46792;38.854;-9.384;2023-05-27T12:11:17;4.20;;;2.75;;
60917;SDS011;46792;38.854;-9.384;2023-05-27T12:13:17;4.47;;;2.65;;
60917;SDS011;46792;38.854;-9.384;2023-05-27T12:15:17;6.07;;;2.50;;
60917;SDS011;46792;38.854;-9.384;2023-05-27T12:19:37;10.25;;;2.85;;
60917;SDS011;46792;38.854;-9.384;2023-05-27T12:21:38;5.40;;;2.45;;
60917;SDS011;46792;38.854;-9.384;2023-05-27T12:23:38;4.68;;;2.33;;
60917;SDS011;46792;38.854;-9.384;2023-05-27T12:27:58;6.50;;;2.40;;
60917;SDS011;46792;38.854;-9.384;2023-05-27T12:32:36;4.70;;;2.33;;
60917;SDS011;46792;38.854;-9.384;2023-05-27T12:34:37;5.70;;;2.45;;
60917;SDS011;46792;38.854;-9.384;2023-05-27T12:38:57;5.80;;;2.50;;
60917;SDS011;46792;38.854;-9.384;2023-05-27T12:41:16;4.28;;;2.25;;
60917;SDS011;46792;38.854;-9.384;2023-05-27T12:43:35;8.02;;;2.50;;
60917;SDS011;46792;38.854;-9.384;2023-05-27T12:45:54;6.95;;;2.55;;
60917;SDS011;46792;38.854;-9.384;2023-05-27T12:47:54;6.35;;;2.53;;
60917;SDS011;46792;38.854;-9.384;2023-05-27T12:57:30;7.85;;;2.63;;
60917;SDS011;46792;38.854;-9.384;2023-05-27T12:59:31;6.05;;;2.47;;
60917;SDS011;46792;38.854;-9.384;2023-05-27T13:01:32;5.82;;;2.50;;
60917;SDS011;46792;38.854;-9.384;2023-05-27T13:03:33;5.63;;;2.90;;
60917;SDS011;46792;38.854;-9.384;2023-05-27T13:05:34;10.18;;;3.10;;
60917;SDS011;46792;38.854;-9.384;2023-05-27T13:07:35;8.35;;;3.30;;
60917;SDS011;46792;38.854;-9.384;2023-05-27T13:09:35;10.93;;;2.80;;
60917;SDS011;46792;38.854;-9.384;2023-05-27T13:11:36;9.00;;;2.95;;
60917;SDS011;46792;38.854;-9.384;2023-05-27T13:13:55;15.68;;;2.95;;
60917;SDS011;46792;38.854;-9.384;2023-05-27T13:16:14;11.25;;;3.45;;
60917;SDS011;46792;38.854;-9.384;2023-05-27T13:18:14;6.30;;;2.75;;
60917;SDS011;46792;38.854;-9.384;2023-05-27T13:20:33;8.68;;;2.90;;
60917;SDS011;46792;38.854;-9.384;2023-05-27T13:22:52;15.13;;;3.75;;
60917;SDS011;46792;38.854;-9.384;2023-05-27T13:27:12;8.98;;;3.20;;
60917;SDS011;46792;38.854;-9.384;2023-05-27T13:29:13;6.63;;;4.13;;
60917;SDS011;46792;38.854;-9.384;2023-05-27T13:31:13;15.55;;;5.13;;
60917;SDS011;46792;38.854;-9.384;2023-05-27T13:33:14;10.15;;;4.97;;
60917;SDS011;46792;38.854;-9.384;2023-05-27T13:35:15;11.35;;;4.10;;
60917;SDS011;46792;38.854;-9.384;2023-05-27T13:37:34;9.55;;;3.58;;
60917;SDS011;46792;38.854;-9.384;2023-05-27T13:39:35;11.90;;;2.53;;
60917;SDS011;46792;38.854;-9.384;2023-05-27T13:41:35;5.88;;;2.47;;
60917;SDS011;46792;38.854;-9.384;2023-05-27T13:43:36;6.40;;;3.70;;
60917;SDS011;46792;38.854;-9.384;2023-05-27T13:45:36;7.93;;;2.80;;
60917;SDS011;46792;38.854;-9.384;2023-05-27T13:54:34;10.05;;;3.78;;
60917;SDS011;46792;38.854;-9.384;2023-05-27T13:58:54;10.45;;;3.55;;
60917;SDS011;46792;38.854;-9.384;2023-05-27T14:05:52;10.20;;;3.97;;
60917;SDS011;46792;38.854;-9.384;2023-05-27T14:07:52;9.23;;;3.80;;
60917;SDS011;46792;38.854;-9.384;2023-05-27T14:09:53;8.02;;;3.45;;
60917;SDS011;46792;38.854;-9.384;2023-05-27T14:11:53;15.00;;;3.17;;
60917;SDS011;46792;38.854;-9.384;2023-05-27T14:13:55;11.52;;;3.22;;
60917;SDS011;46792;38.854;-9.384;2023-05-27T14:15:55;12.13;;;3.83;;
60917;SDS011;46792;38.854;-9.384;2023-05-27T14:17:56;9.00;;;3.38;;
60917;SDS011;46792;38.854;-9.384;2023-05-27T14:19:57;10.50;;;2.80;;
60917;SDS011;46792;38.854;-9.384;2023-05-27T14:21:57;8.57;;;3.55;;
60917;SDS011;46792;38.854;-9.384;2023-05-27T14:23:58;14.43;;;3.83;;
60917;SDS011;46792;38.854;-9.384;2023-05-27T14:25:59;10.63;;;3.30;;
60917;SDS011;46792;38.854;-9.384;2023-05-27T14:28:00;10.02;;;3.55;;
60917;SDS011;46792;38.854;-9.384;2023-05-27T14:30:04;10.27;;;4.53;;
60917;SDS011;46792;38.854;-9.384;2023-05-27T14:32:08;9.20;;;3.13;;
60917;SDS011;46792;38.854;-9.384;2023-05-27T14:34:08;7.03;;;3.22;;
60917;SDS011;46792;38.854;-9.384;2023-05-27T14:36:27;14.15;;;4.93;;
60917;SDS011;46792;38.854;-9.384;2023-05-27T14:38:27;10.65;;;4.22;;
60917;SDS011;46792;38.854;-9.384;2023-05-27T14:40:28;10.77;;;3.97;;
60917;SDS011;46792;38.854;-9.384;2023-05-27T14:42:28;13.80;;;4.25;;
60917;SDS011;46792;38.854;-9.384;2023-05-27T14:44:29;12.52;;;4.43;;
60917;SDS011;46792;38.854;-9.384;2023-05-27T14:46:30;7.97;;;3.05;;
60917;SDS011;46792;38.854;-9.384;2023-05-27T14:48:30;4.85;;;2.85;;
60917;SDS011;46792;38.854;-9.384;2023-05-27T14:50:30;14.02;;;3.10;;
60917;SDS011;46792;38.854;-9.384;2023-05-27T14:52:32;5.07;;;2.78;;
60917;SDS011;46792;38.854;-9.384;2023-05-27T14:54:32;12.23;;;2.97;;
60917;SDS011;46792;38.854;-9.384;2023-05-27T14:56:32;9.00;;;3.17;;
60917;SDS011;46792;38.854;-9.384;2023-05-27T14:58:33;10.35;;;2.88;;
60917;SDS011;46792;38.854;-9.384;2023-05-27T15:00:33;13.23;;;4.13;;
60917;SDS011;46792;38.854;-9.384;2023-05-27T15:02:34;5.70;;;2.50;;
60917;SDS011;46792;38.854;-9.384;2023-05-27T15:04:35;6.75;;;2.88;;
60917;SDS011;46792;38.854;-9.384;2023-05-27T15:06:36;12.30;;;3.17;;
60917;SDS011;46792;38.854;-9.384;2023-05-27T15:08:36;6.90;;;3.30;;
60917;SDS011;46792;38.854;-9.384;2023-05-27T15:10:37;8.73;;;2.80;;
60917;SDS011;46792;38.854;-9.384;2023-05-27T15:12:44;5.88;;;3.10;;
60917;SDS011;46792;38.854;-9.384;2023-05-27T15:14:46;8.50;;;3.20;;
60917;SDS011;46792;38.854;-9.384;2023-05-27T15:16:47;11.32;;;2.97;;
60917;SDS011;46792;38.854;-9.384;2023-05-27T15:18:47;9.00;;;2.97;;
60917;SDS011;46792;38.854;-9.384;2023-05-27T15:20:47;5.20;;;2.80;;
60917;SDS011;46792;38.854;-9.384;2023-05-27T15:23:07;9.38;;;2.65;;
60917;SDS011;46792;38.854;-9.384;2023-05-27T15:25:26;8.60;;;3.33;;
60917;SDS011;46792;38.854;-9.384;2023-05-27T15:27:27;5.72;;;3.03;;
60917;SDS011;46792;38.854;-9.384;2023-05-27T15:29:27;6.40;;;2.72;;
60917;SDS011;46792;38.854;-9.384;2023-05-27T15:31:28;11.43;;;3.30;;
60917;SDS011;46792;38.854;-9.384;2023-05-27T15:33:28;12.88;;;3.90;;
60917;SDS011;46792;38.854;-9.384;2023-05-27T15:35:28;6.80;;;2.90;;